Time;durP1;ratioP1;P1;durP2;ratioP2;P2;SDS_P1;SDS_P2;PMS_P1;PMS_P2;Temp;Humidity;BMP_temperature;BMP_pressure;BME280_temperature;BME280_humidity;BME280_pressure;Samples;Min_cycle;Max_cycle;Signal;HPM_P1;HPM_P2
2023/03/27 00:00:26;;;;;;;4.60;3.13;;;;;;;12.41;51.53;98622.34;5114638;28;20227;-78
2023/03/27 00:02:53;;;;;;;3.13;2.93;;;;;;;12.30;52.14;98618.63;5097476;28;20206;-76
2023/03/27 00:05:21;;;;;;;4.40;3.63;;;;;;;12.18;53.06;98604.47;5114963;28;20289;-79
2023/03/27 00:07:50;;;;;;;5.57;4.93;;;;;;;12.08;52.63;98609.53;5115185;28;20284;-79
2023/03/27 00:10:17;;;;;;;7.57;5.33;;;;;;;11.93;53.30;98587.84;5095775;28;20200;-79
2023/03/27 00:12:44;;;;;;;7.07;6.37;;;;;;;11.95;53.54;98591.09;5114708;28;20657;-79
2023/03/27 00:15:15;;;;;;;7.93;5.67;;;;;;;11.78;53.91;98591.94;5096572;28;20279;-79
2023/03/27 00:17:45;;;;;;;7.23;6.53;;;;;;;11.62;54.85;98590.72;5111998;28;20197;-79
2023/03/27 00:20:12;;;;;;;6.77;5.77;;;;;;;11.55;55.15;98595.28;5112970;28;20224;-79
2023/03/27 00:22:41;;;;;;;13.43;6.07;;;;;;;11.49;55.56;98598.03;5100561;28;20283;-79
2023/03/27 00:25:09;;;;;;;7.87;6.37;;;;;;;11.21;56.00;98576.47;5112282;28;20324;-79
2023/03/27 00:27:38;;;;;;;7.37;6.07;;;;;;;11.12;56.54;98581.28;5113153;28;20235;-79
2023/03/27 00:30:06;;;;;;;5.83;5.33;;;;;;;11.10;56.94;98587.88;5112328;28;20198;-79
2023/03/27 00:32:36;;;;;;;8.13;5.10;;;;;;;11.12;57.53;98597.25;5113247;28;20198;-79
2023/03/27 00:35:03;;;;;;;5.00;4.50;;;;;;;11.21;57.25;98601.22;5113055;28;20253;-79
2023/03/27 00:37:30;;;;;;;4.10;3.80;;;;;;;11.13;57.37;98598.03;5114404;28;20199;-79
2023/03/27 00:39:58;;;;;;;9.97;3.90;;;;;;;11.14;57.44;98591.72;5095296;28;20216;-80
2023/03/27 00:42:25;;;;;;;4.17;3.70;;;;;;;11.11;56.88;98574.31;5113810;28;20191;-78
2023/03/27 00:44:52;;;;;;;4.47;3.17;;;;;;;11.09;57.12;98563.13;5114295;28;20282;-80
2023/03/27 00:47:27;;;;;;;3.10;2.90;;;;;;;11.13;56.62;98584.75;5113717;28;20200;-79
2023/03/27 00:49:54;;;;;;;2.87;2.63;;;;;;;11.15;56.74;98574.72;5113129;28;20188;-80
2023/03/27 00:52:21;;;;;;;2.80;2.60;;;;;;;11.24;56.31;98576.03;5113808;28;20570;-77
2023/03/27 00:54:49;;;;;;;3.00;2.70;;;;;;;11.28;55.68;98569.25;5113479;28;20192;-77
2023/03/27 00:57:20;;;;;;;4.07;2.77;;;;;;;11.22;56.14;98555.00;5113110;28;20213;-77
2023/03/27 00:59:50;;;;;;;4.37;2.87;;;;;;;11.04;56.63;98552.34;5113744;28;20265;-77
2023/03/27 01:02:18;;;;;;;3.20;3.00;;;;;;;11.05;57.04;98548.66;5113770;28;20259;-77
2023/03/27 01:04:46;;;;;;;2.83;2.60;;;;;;;11.12;56.90;98538.78;5113649;28;20193;-77
2023/03/27 01:07:13;;;;;;;3.30;3.10;;;;;;;11.22;56.61;98541.69;5112864;28;20736;-79
2023/03/27 01:09:39;;;;;;;4.50;3.10;;;;;;;11.24;56.54;98533.50;5113430;28;20287;-79
2023/03/27 01:12:15;;;;;;;3.23;3.03;;;;;;;11.26;56.35;98542.88;5113589;28;20200;-78
2023/03/27 01:14:54;;;;;;;3.67;3.27;;;;;;;11.25;56.33;98546.59;5113446;28;20724;-78
2023/03/27 01:17:37;;;;;;;3.67;3.10;;;;;;;11.12;56.59;98546.75;5113629;28;20193;-78
2023/03/27 01:20:41;;;;;;;3.73;3.20;;;;;;;11.04;56.53;98541.72;5112387;28;20242;-79
2023/03/27 01:23:51;;;;;;;3.77;3.50;;;;;;;11.08;55.81;98537.59;5086977;28;20553;-78
2023/03/27 01:27:05;;;;;;;3.53;3.33;;;;;;;11.02;56.26;98530.50;5113123;28;20231;-77
2023/03/27 01:29:42;;;;;;;4.30;3.13;;;;;;;10.99;56.60;98525.63;5113183;28;20248;-78
2023/03/27 01:32:49;;;;;;;5.53;3.37;;;;;;;10.91;57.27;98529.38;5112498;28;20249;-79
2023/03/27 01:35:46;;;;;;;3.70;3.40;;;;;;;10.89;57.47;98528.81;5112889;28;20186;-78
2023/03/27 01:39:04;;;;;;;3.63;3.43;;;;;;;10.90;57.60;98516.31;5109700;28;20292;-78
2023/03/27 01:41:38;;;;;;;12.23;3.70;;;;;;;10.82;57.22;98511.31;5030053;28;20578;-79
2023/03/27 01:44:13;;;;;;;8.40;3.63;;;;;;;10.81;57.84;98493.75;5028655;28;20183;-78
2023/03/27 01:46:45;;;;;;;4.27;3.87;;;;;;;10.80;58.25;98500.09;5085140;28;20248;-77
2023/03/27 01:49:17;;;;;;;5.33;3.57;;;;;;;10.84;57.67;98506.59;5112597;28;20184;-77
2023/03/27 01:51:48;;;;;;;6.13;4.47;;;;;;;10.73;57.64;98505.50;5112767;28;20655;-78
2023/03/27 01:54:22;;;;;;;8.00;4.33;;;;;;;10.53;57.58;98501.41;5092438;28;20268;-79
2023/03/27 01:56:55;;;;;;;4.87;4.57;;;;;;;10.37;57.96;98494.00;5092561;28;20237;-80
2023/03/27 01:59:27;;;;;;;5.13;4.73;;;;;;;10.41;58.36;98495.19;5091768;28;20192;-79
2023/03/27 02:01:58;;;;;;;6.57;5.47;;;;;;;10.48;57.77;98490.63;5093033;28;20219;-81
2023/03/27 02:04:33;;;;;;;5.43;5.03;;;;;;;10.40;57.82;98490.91;5112504;28;20588;-80
2023/03/27 02:07:05;;;;;;;6.50;5.67;;;;;;;10.29;57.90;98502.25;5112134;28;20664;-78
2023/03/27 02:09:35;;;;;;;8.93;5.43;;;;;;;10.21;58.17;98498.03;5113047;28;20271;-78
2023/03/27 02:12:08;;;;;;;6.00;5.50;;;;;;;10.17;58.66;98480.91;5112137;28;20237;-78
2023/03/27 02:14:39;;;;;;;6.27;5.67;;;;;;;10.11;58.94;98487.13;5111662;28;20635;-77
2023/03/27 02:17:09;;;;;;;7.63;5.13;;;;;;;10.12;59.64;98482.59;5111857;28;20188;-77
2023/03/27 02:19:42;;;;;;;5.80;5.33;;;;;;;10.22;59.09;98474.97;5093088;28;20226;-78
2023/03/27 02:22:08;;;;;;;7.60;5.20;;;;;;;10.31;58.55;98476.31;5112333;28;20187;-79
2023/03/27 02:24:37;;;;;;;8.47;5.27;;;;;;;10.40;58.32;98470.50;5111751;28;20192;-79
2023/03/27 02:27:11;;;;;;;5.40;4.90;;;;;;;10.40;58.69;98451.94;5111307;28;20222;-79
2023/03/27 02:29:53;;;;;;;8.00;5.03;;;;;;;10.49;59.53;98455.09;5111742;28;20181;-79
2023/03/27 02:32:36;;;;;;;5.83;5.33;;;;;;;10.51;59.12;98461.00;5111922;28;20187;-78
2023/03/27 02:35:20;;;;;;;8.10;5.27;;;;;;;10.44;59.05;98439.00;5111573;28;20245;-79
2023/03/27 02:37:58;;;;;;;6.50;4.37;;;;;;;10.52;59.74;98452.00;5112113;28;20214;-80
2023/03/27 02:40:35;;;;;;;5.50;5.00;;;;;;;10.50;59.88;98454.06;5112011;28;20271;-78
2023/03/27 02:43:08;;;;;;;7.67;4.80;;;;;;;10.37;61.05;98449.69;5111597;28;20194;-80
2023/03/27 02:45:44;;;;;;;8.43;5.50;;;;;;;10.41;61.03;98450.06;5111287;28;20183;-79
2023/03/27 02:48:16;;;;;;;7.37;4.80;;;;;;;10.47;61.09;98442.03;5112176;28;20187;-79
2023/03/27 02:50:49;;;;;;;5.93;4.83;;;;;;;10.54;61.75;98440.13;5110982;28;20506;-79
2023/03/27 02:53:21;;;;;;;4.53;4.23;;;;;;;10.56;60.95;98437.25;5110541;28;20269;-79
2023/03/27 02:55:52;;;;;;;6.43;5.83;;;;;;;10.64;60.47;98437.78;5111468;28;20171;-78
2023/03/27 02:58:29;;;;;;;4.37;4.07;;;;;;;10.71;59.92;98438.50;5111788;28;20208;-80
2023/03/27 03:00:59;;;;;;;4.50;4.20;;;;;;;10.77;60.01;98434.13;5111359;28;20213;-80
2023/03/27 03:03:32;;;;;;;10.80;4.10;;;;;;;10.91;59.29;98435.63;5110992;28;20196;-79
2023/03/27 03:06:03;;;;;;;12.50;8.80;;;;;;;10.99;59.08;98427.34;5111987;28;20195;-79
2023/03/27 03:08:30;;;;;;;3.87;3.67;;;;;;;11.07;58.78;98428.84;5111861;28;20184;-78
2023/03/27 03:11:01;;;;;;;3.33;3.03;;;;;;;11.10;58.69;98428.41;5113417;28;20224;-79
2023/03/27 03:13:29;;;;;;;4.37;4.07;;;;;;;11.07;58.71;98427.03;5115584;28;20188;-77
2023/03/27 03:15:56;;;;;;;4.37;3.80;;;;;;;11.15;58.37;98420.56;5114263;28;20550;-80
2023/03/27 03:18:23;;;;;;;4.03;3.73;;;;;;;11.25;58.16;98432.28;5115787;28;20189;-79
2023/03/27 03:20:52;;;;;;;13.93;9.73;;;;;;;11.30;58.04;98429.75;5115738;28;20225;-77
2023/03/27 03:23:19;;;;;;;3.83;3.50;;;;;;;11.33;58.00;98429.31;5115371;28;20287;-79
2023/03/27 03:25:46;;;;;;;10.10;6.10;;;;;;;11.31;58.02;98428.72;5115609;28;20196;-78
2023/03/27 03:28:16;;;;;;;4.67;3.60;;;;;;;11.31;58.16;98431.38;5114671;28;20670;-77
2023/03/27 03:30:49;;;;;;;4.57;4.03;;;;;;;11.34;57.72;98422.13;5115419;28;20189;-76
2023/03/27 03:33:16;;;;;;;5.20;4.53;;;;;;;11.35;58.34;98416.59;5115529;28;20232;-78
2023/03/27 03:35:47;;;;;;;5.37;4.30;;;;;;;11.30;58.04;98397.84;5115086;28;20188;-79
2023/03/27 03:38:23;;;;;;;4.53;3.73;;;;;;;11.28;58.44;98402.59;5114887;28;20187;-78
2023/03/27 03:40:51;;;;;;;7.37;4.53;;;;;;;11.34;58.20;98392.88;5114387;28;20200;-79
2023/03/27 03:43:19;;;;;;;18.73;5.93;;;;;;;11.35;58.38;98387.34;5113823;28;20195;-78
2023/03/27 03:45:47;;;;;;;6.40;5.13;;;;;;;11.39;58.14;98393.03;5115123;28;20264;-78
2023/03/27 03:48:15;;;;;;;5.33;4.67;;;;;;;11.37;58.02;98390.59;5114881;28;20261;-78
2023/03/27 03:50:42;;;;;;;8.63;5.00;;;;;;;11.29;58.65;98380.28;5114681;28;20195;-78
2023/03/27 03:53:09;;;;;;;7.43;5.50;;;;;;;11.20;59.50;98381.66;5114173;28;20745;-78
2023/03/27 03:55:36;;;;;;;11.53;5.63;;;;;;;11.22;59.72;98395.50;5114539;28;20195;-78
2023/03/27 03:58:04;;;;;;;8.00;5.10;;;;;;;11.27;59.80;98392.97;5114166;28;20196;-78
2023/03/27 04:00:33;;;;;;;5.27;4.67;;;;;;;11.19;60.57;98372.03;5113886;28;20223;-78
2023/03/27 04:03:03;;;;;;;5.40;4.90;;;;;;;11.22;60.31;98390.19;5114659;28;20197;-79
2023/03/27 04:05:30;;;;;;;5.47;4.97;;;;;;;11.22;60.29;98400.03;5114182;28;20200;-79
2023/03/27 04:07:58;;;;;;;7.47;5.90;;;;;;;11.23;60.45;98386.50;5114891;28;20196;-79
2023/03/27 04:10:25;;;;;;;22.17;5.73;;;;;;;11.21;60.74;98385.94;5113750;28;20187;-79
2023/03/27 04:12:52;;;;;;;8.10;5.53;;;;;;;10.98;61.78;98384.00;5113748;28;20184;-79
2023/03/27 04:15:19;;;;;;;9.07;5.13;;;;;;;10.77;63.24;98376.53;5113944;28;20187;-79
2023/03/27 04:17:51;;;;;;;5.40;4.90;;;;;;;10.80;63.21;98386.72;5114261;28;20208;-79
2023/03/27 04:20:20;;;;;;;9.23;5.20;;;;;;;10.90;63.17;98380.84;5113904;28;20587;-79
2023/03/27 04:22:48;;;;;;;6.67;4.60;;;;;;;10.90;63.02;98375.53;5113075;28;20194;-79
2023/03/27 04:25:17;;;;;;;6.83;5.30;;;;;;;10.97;62.44;98378.91;5113970;28;20281;-78
2023/03/27 04:27:43;;;;;;;11.83;5.33;;;;;;;10.93;62.05;98375.91;5114252;28;20272;-79
2023/03/27 04:30:12;;;;;;;8.27;4.97;;;;;;;10.70;63.07;98356.38;5114264;28;20199;-78
2023/03/27 04:32:40;;;;;;;5.53;4.70;;;;;;;10.66;63.79;98376.47;5113910;28;20545;-79
2023/03/27 04:35:09;;;;;;;6.70;5.13;;;;;;;10.75;63.54;98360.00;5113192;28;20191;-79
2023/03/27 04:37:40;;;;;;;6.83;5.43;;;;;;;11.05;62.47;98357.34;5114071;28;20195;-79
2023/03/27 04:40:08;;;;;;;6.70;5.20;;;;;;;11.53;61.71;98373.97;5113954;28;20191;-78
2023/03/27 04:42:34;;;;;;;8.97;6.00;;;;;;;11.85;60.43;98371.84;5113165;28;20692;-79
2023/03/27 04:45:01;;;;;;;6.70;4.93;;;;;;;11.96;60.58;98382.47;5113786;28;20673;-78
2023/03/27 04:47:28;;;;;;;14.97;6.00;;;;;;;12.01;60.67;98374.59;5113905;28;20196;-78
2023/03/27 04:49:57;;;;;;;10.03;6.60;;;;;;;12.07;60.85;98357.72;5113518;28;20732;-78
2023/03/27 04:52:24;;;;;;;10.13;5.60;;;;;;;12.57;59.94;98357.97;5113157;28;20283;-77
2023/03/27 04:54:54;;;;;;;7.27;6.30;;;;;;;13.24;58.39;98376.59;5113686;28;20283;-77
2023/03/27 04:57:21;;;;;;;11.13;5.97;;;;;;;13.74;56.48;98348.09;5113306;28;20183;-78
2023/03/27 04:59:49;;;;;;;7.50;5.67;;;;;;;13.78;54.88;98378.59;5113801;28;20251;-78
2023/03/27 05:02:15;;;;;;;13.53;5.37;;;;;;;13.99;55.73;98377.84;5112715;28;20374;-78
2023/03/27 05:04:42;;;;;;;6.90;6.07;;;;;;;14.58;52.96;98381.63;5113057;28;20731;-78
2023/03/27 05:07:10;;;;;;;6.70;6.07;;;;;;;15.34;50.95;98379.56;5113480;28;20198;-78
2023/03/27 05:09:37;;;;;;;13.27;7.07;;;;;;;15.79;49.12;98366.56;5113014;28;20195;-77
2023/03/27 05:12:06;;;;;;;8.80;6.17;;;;;;;16.37;47.87;98372.84;5112808;28;20190;-77
2023/03/27 05:14:32;;;;;;;11.67;7.17;;;;;;;16.63;46.71;98385.31;5113311;28;20195;-77
2023/03/27 05:16:59;;;;;;;12.90;6.57;;;;;;;17.24;45.71;98385.28;5112957;28;20656;-75
2023/03/27 05:19:26;;;;;;;22.83;7.47;;;;;;;17.36;44.06;98368.91;5102701;28;20215;-78
2023/03/27 05:21:53;;;;;;;10.77;6.67;;;;;;;18.17;42.72;98392.81;5092213;28;20220;-75
2023/03/27 05:24:19;;;;;;;8.43;7.63;;;;;;;17.73;43.72;98367.59;5105193;28;20756;-76
2023/03/27 05:26:47;;;;;;;9.30;7.97;;;;;;;18.01;44.02;98356.28;5112780;28;20237;-77
2023/03/27 05:29:15;;;;;;;7.27;6.57;;;;;;;18.16;43.32;98358.97;5113639;28;20285;-77
2023/03/27 05:31:42;;;;;;;8.73;6.80;;;;;;;18.28;45.58;98355.97;5104551;28;20582;-77
2023/03/27 05:34:10;;;;;;;8.70;4.90;;;;;;;19.23;57.55;98355.56;5103137;28;20199;-76
2023/03/27 05:36:37;;;;;;;4.80;4.20;;;;;;;20.58;54.37;98351.72;5090145;28;20192;-81
2023/03/27 05:39:04;;;;;;;9.47;6.20;;;;;;;21.69;45.58;98362.63;5094197;28;20603;-78
2023/03/27 05:41:31;;;;;;;8.20;6.93;;;;;;;22.08;40.09;98354.94;5112929;28;20226;-77
2023/03/27 05:43:57;;;;;;;6.13;5.43;;;;;;;22.49;42.96;98333.34;5110712;28;20596;-78
2023/03/27 05:46:25;;;;;;;8.73;6.93;;;;;;;23.01;40.54;98358.00;5110114;28;20202;-77
2023/03/27 05:48:52;;;;;;;9.10;6.70;;;;;;;23.72;38.45;98354.47;5110659;28;20187;-79
2023/03/27 05:51:19;;;;;;;6.80;6.27;;;;;;;23.94;35.87;98346.38;5110694;28;20731;-77
2023/03/27 05:53:46;;;;;;;8.40;6.77;;;;;;;24.25;34.73;98334.41;5113034;28;20202;-77
2023/03/27 05:56:12;;;;;;;7.80;6.87;;;;;;;24.03;35.83;98341.78;5110399;28;20194;-76
2023/03/27 05:58:39;;;;;;;7.53;6.80;;;;;;;24.52;35.09;98328.78;5110677;28;20203;-76
2023/03/27 06:01:06;;;;;;;8.40;7.67;;;;;;;25.04;34.59;98340.59;5111262;28;20225;-76
2023/03/27 06:03:37;;;;;;;8.50;6.60;;;;;;;25.14;33.75;98344.94;5111505;28;20235;-77
2023/03/27 06:06:07;;;;;;;10.87;9.13;;;;;;;24.69;32.82;98334.28;5111024;28;20219;-77
2023/03/27 06:08:35;;;;;;;8.30;7.70;;;;;;;24.31;33.38;98326.94;5112492;28;20275;-75
2023/03/27 06:11:07;;;;;;;12.53;11.33;;;;;;;23.90;33.63;98332.59;5111415;28;20212;-72
2023/03/27 06:13:34;;;;;;;13.90;10.73;;;;;;;23.20;34.77;98307.19;5111408;28;20241;-73
2023/03/27 06:16:02;;;;;;;12.57;11.37;;;;;;;21.98;37.15;98319.97;5111227;28;20555;-73
2023/03/27 06:18:29;;;;;;;14.17;12.20;;;;;;;21.43;38.16;98325.47;5092616;28;20210;-74
2023/03/27 06:20:57;;;;;;;13.77;12.57;;;;;;;20.78;39.29;98307.50;5110867;28;20213;-74
2023/03/27 06:23:24;;;;;;;13.73;12.23;;;;;;;20.14;41.02;98308.78;5112504;28;20646;-73
2023/03/27 06:25:52;;;;;;;13.07;11.87;;;;;;;19.71;43.19;98303.53;5111976;28;20284;-74
2023/03/27 06:28:19;;;;;;;13.63;12.23;;;;;;;19.82;42.58;98308.56;5112527;28;20221;-76
2023/03/27 06:30:46;;;;;;;12.83;11.60;;;;;;;19.35;45.04;98310.28;5112515;28;20199;-75
2023/03/27 06:33:13;;;;;;;15.50;12.33;;;;;;;18.57;46.22;98305.88;5112248;28;20201;-76
2023/03/27 06:35:42;;;;;;;13.40;11.70;;;;;;;18.17;48.27;98303.34;5113014;28;20637;-75
2023/03/27 06:38:11;;;;;;;12.33;11.23;;;;;;;18.41;48.23;98310.53;5112440;28;20222;-76
2023/03/27 06:40:38;;;;;;;14.60;10.60;;;;;;;18.55;47.24;98313.44;5112391;28;20202;-75
2023/03/27 06:43:06;;;;;;;12.17;10.57;;;;;;;18.50;48.02;98297.34;5112290;28;20294;-76
2023/03/27 06:45:36;;;;;;;12.80;11.53;;;;;;;18.71;46.97;98304.22;5113644;28;20231;-76
2023/03/27 06:48:05;;;;;;;14.73;11.93;;;;;;;19.29;45.87;98292.56;5116735;28;20627;-76
2023/03/27 06:50:32;;;;;;;22.70;13.67;;;;;;;19.72;44.75;98288.97;5116550;28;20256;-76
2023/03/27 06:52:59;;;;;;;13.73;12.30;;;;;;;19.34;45.00;98287.97;5116636;28;20251;-76
2023/03/27 06:55:30;;;;;;;16.10;12.17;;;;;;;18.73;46.98;98270.56;5116098;28;20256;-76
2023/03/27 06:57:58;;;;;;;16.00;12.00;;;;;;;18.94;46.70;98272.06;5116792;28;20196;-75
2023/03/27 07:00:28;;;;;;;17.73;11.70;;;;;;;18.53;47.15;98275.25;5115806;28;20251;-75
2023/03/27 07:02:56;;;;;;;16.17;12.10;;;;;;;18.43;48.10;98259.19;5116362;28;20218;-75
2023/03/27 07:05:23;;;;;;;12.57;11.37;;;;;;;18.53;48.91;98251.84;5115885;28;20223;-75
2023/03/27 07:07:50;;;;;;;16.73;12.00;;;;;;;18.72;47.58;98244.75;5116207;28;20195;-75
2023/03/27 07:10:17;;;;;;;15.97;12.63;;;;;;;18.22;48.89;98230.75;5115886;28;20205;-75
2023/03/27 07:12:46;;;;;;;15.27;12.53;;;;;;;18.29;49.19;98220.50;5116213;28;20243;-74
2023/03/27 07:15:13;;;;;;;13.67;11.47;;;;;;;18.27;49.12;98201.16;5115646;28;20220;-74
2023/03/27 07:17:42;;;;;;;13.67;11.57;;;;;;;18.66;49.57;98199.34;5115835;28;20663;-74
2023/03/27 07:20:10;;;;;;;14.70;12.87;;;;;;;19.23;47.05;98178.72;5115841;28;20282;-75
2023/03/27 07:22:37;;;;;;;16.23;12.90;;;;;;;18.64;48.58;98179.97;5115694;28;20214;-74
2023/03/27 07:25:05;;;;;;;17.40;12.67;;;;;;;18.80;48.27;98162.66;5115465;28;20187;-74
2023/03/27 07:27:32;;;;;;;14.17;12.67;;;;;;;19.02;46.94;98154.91;5116112;28;20261;-74
2023/03/27 07:30:00;;;;;;;12.83;11.53;;;;;;;19.12;47.58;98155.63;5115834;28;20262;-74
2023/03/27 07:32:28;;;;;;;15.30;12.23;;;;;;;19.36;46.32;98120.72;5115753;28;20205;-74
2023/03/27 07:34:55;;;;;;;13.80;12.47;;;;;;;19.52;46.96;98095.22;5115560;28;20190;-75
2023/03/27 07:37:22;;;;;;;14.63;12.43;;;;;;;19.52;45.58;98095.22;5115520;28;20196;-76
2023/03/27 07:39:49;;;;;;;14.87;13.10;;;;;;;19.12;47.08;98082.19;5115607;28;20226;-75
2023/03/27 07:42:16;;;;;;;14.73;13.23;;;;;;;18.90;47.57;98063.00;5115408;28;20220;-75
2023/03/27 07:44:43;;;;;;;17.07;13.43;;;;;;;18.54;49.02;98056.34;5115406;28;20199;-74
2023/03/27 07:47:11;;;;;;;16.73;12.63;;;;;;;18.28;49.25;98042.28;5115534;28;20195;-75
2023/03/27 07:49:37;;;;;;;14.97;12.50;;;;;;;18.04;51.34;98029.81;5115168;28;20659;-75
2023/03/27 07:52:05;;;;;;;16.87;12.57;;;;;;;17.87;52.08;98024.81;5115159;28;20660;-75
2023/03/27 07:54:32;;;;;;;15.03;13.27;;;;;;;17.47;53.39;98000.09;5115316;28;20195;-75
2023/03/27 07:56:59;;;;;;;17.50;13.67;;;;;;;17.42;54.69;98003.59;5114211;28;20197;-75
2023/03/27 07:59:26;;;;;;;20.00;13.43;;;;;;;17.54;54.38;97993.31;5115262;28;20634;-75
2023/03/27 08:01:54;;;;;;;16.70;14.83;;;;;;;17.51;54.41;97974.31;5115215;28;20218;-74
2023/03/27 08:04:22;;;;;;;17.53;14.40;;;;;;;17.30;56.11;97980.78;5115064;28;20205;-75
2023/03/27 08:06:50;;;;;;;17.60;15.83;;;;;;;17.21;56.88;97987.81;5114864;28;20659;-74
2023/03/27 08:09:17;;;;;;;17.53;15.63;;;;;;;17.06;57.88;97961.06;5114694;28;20252;-74
2023/03/27 08:11:44;;;;;;;20.67;17.73;;;;;;;17.01;58.90;97977.16;5115078;28;20190;-74
2023/03/27 08:14:10;;;;;;;29.23;17.17;;;;;;;17.15;58.62;97989.72;5115217;28;20194;-74
2023/03/27 08:16:37;;;;;;;19.70;15.80;;;;;;;17.27;58.88;97978.69;5114719;28;20244;-74
2023/03/27 08:19:05;;;;;;;16.60;14.90;;;;;;;17.48;58.54;97977.53;5114940;28;20620;-74
2023/03/27 08:21:34;;;;;;;16.60;14.03;;;;;;;17.13;59.29;97948.94;5114693;28;20191;-74
2023/03/27 08:24:03;;;;;;;15.63;13.63;;;;;;;16.93;60.14;97948.22;5114779;28;20282;-74
2023/03/27 08:26:31;;;;;;;20.00;14.30;;;;;;;16.73;60.78;97937.56;5114388;28;20233;-74
2023/03/27 08:28:57;;;;;;;17.73;14.67;;;;;;;16.89;61.62;97942.59;5114711;28;20274;-74
2023/03/27 08:31:27;;;;;;;20.20;14.73;;;;;;;17.16;60.85;97950.28;5114595;28;20205;-73
2023/03/27 08:33:54;;;;;;;16.97;15.17;;;;;;;17.38;59.91;97945.31;5114758;28;20207;-74
2023/03/27 08:36:21;;;;;;;28.47;17.23;;;;;;;17.29;60.09;97928.19;5114123;28;20605;-74
2023/03/27 08:38:50;;;;;;;18.17;16.23;;;;;;;17.56;60.32;97945.50;5113895;28;20202;-74
2023/03/27 08:41:26;;;;;;;12.63;10.73;;;;;;;18.17;60.61;97943.19;5113042;28;20288;-73
2023/03/27 08:43:56;;;;;;;13.90;11.63;;;;;;;19.27;57.33;97925.88;5113589;28;20648;-73
2023/03/27 08:46:27;;;;;;;15.07;13.30;;;;;;;19.78;53.10;97934.84;5113905;28;20192;-73
2023/03/27 08:48:58;;;;;;;14.00;12.27;;;;;;;20.23;52.74;97924.19;5113703;28;20179;-71
2023/03/27 08:51:27;;;;;;;15.63;14.10;;;;;;;20.55;50.73;97928.72;5112599;28;20206;-72
2023/03/27 08:53:58;;;;;;;15.53;13.93;;;;;;;20.73;51.00;97921.63;5112217;28;20268;-72
2023/03/27 08:56:26;;;;;;;17.80;12.53;;;;;;;21.02;51.22;97936.47;5113814;28;20190;-72
2023/03/27 08:58:54;;;;;;;29.57;15.17;;;;;;;21.66;49.85;97919.13;5114189;28;20199;-72
2023/03/27 09:01:28;;;;;;;54.60;17.13;;;;;;;22.22;47.80;97920.22;5113747;28;20736;-72
2023/03/27 09:04:03;;;;;;;23.60;13.67;;;;;;;22.41;47.76;97915.41;5113735;28;20717;-82
2023/03/27 09:06:37;;;;;;;23.13;18.07;;;;;;;23.01;45.25;97899.44;5113595;28;20216;-72
2023/03/27 09:09:11;;;;;;;14.90;13.50;;;;;;;23.49;44.27;97871.16;5110220;28;20277;-71
2023/03/27 09:11:48;;;;;;;15.60;14.17;;;;;;;24.10;43.20;97897.19;5111982;28;20247;-72
2023/03/27 09:14:26;;;;;;;13.87;12.43;;;;;;;24.40;42.11;97891.53;5111950;28;20183;-71
2023/03/27 09:16:56;;;;;;;18.40;16.40;;;;;;;24.81;40.77;97878.13;5109936;28;20241;-73
2023/03/27 09:19:35;;;;;;;17.80;14.53;;;;;;;25.30;40.29;97854.03;5111486;28;20260;-73
2023/03/27 09:22:08;;;;;;;18.27;15.30;;;;;;;25.77;38.80;97852.72;5111263;28;20198;-71
2023/03/27 09:24:41;;;;;;;32.30;13.93;;;;;;;26.01;38.14;97836.50;5111836;28;20179;-73
2023/03/27 09:27:17;;;;;;;29.00;14.27;;;;;;;26.10;37.55;97823.59;5110698;28;20230;-71
2023/03/27 09:29:45;;;;;;;15.23;13.80;;;;;;;26.04;37.75;97822.25;5111288;28;20186;-67
2023/03/27 09:32:14;;;;;;;13.40;12.07;;;;;;;26.12;37.45;97824.03;5110821;28;20281;-70
2023/03/27 09:34:41;;;;;;;12.97;11.63;;;;;;;26.17;36.88;97824.63;5110564;28;20646;-69
2023/03/27 09:37:12;;;;;;;36.27;12.87;;;;;;;26.27;36.07;97817.97;5111060;28;20667;-68
2023/03/27 09:39:45;;;;;;;14.63;9.40;;;;;;;26.48;35.79;97824.91;5110697;28;20251;-70
2023/03/27 09:42:18;;;;;;;15.13;13.00;;;;;;;26.44;36.42;97817.75;5113098;28;20183;-69
2023/03/27 09:44:49;;;;;;;21.43;13.80;;;;;;;25.88;37.65;97821.25;5112804;28;20179;-70
2023/03/27 09:47:19;;;;;;;11.97;10.83;;;;;;;25.41;37.57;97817.19;5112745;28;20706;-67
2023/03/27 09:49:50;;;;;;;41.13;12.33;;;;;;;25.20;37.66;97821.81;5112844;28;20240;-67
2023/03/27 09:52:36;;;;;;;10.63;9.53;;;;;;;24.62;38.39;97833.47;5110424;28;20563;-68
2023/03/27 09:55:22;;;;;;;68.53;16.23;;;;;;;23.94;41.83;97820.13;5110407;28;20207;-70
2023/03/27 09:57:49;;;;;;;27.27;14.87;;;;;;;22.49;45.62;97829.97;5111356;28;20183;-70
2023/03/27 10:00:28;;;;;;;33.43;15.40;;;;;;;22.07;46.80;97827.84;5110556;28;20195;-68
2023/03/27 10:03:00;;;;;;;23.03;14.27;;;;;;;21.70;48.21;97818.25;5110934;28;20293;-68
2023/03/27 10:05:27;;;;;;;18.37;13.83;;;;;;;21.48;49.17;97818.22;5114659;27;20234;-70
2023/03/27 10:07:54;;;;;;;21.00;13.40;;;;;;;21.23;49.24;97824.22;5130886;27;20209;-69
2023/03/27 10:10:24;;;;;;;17.57;13.33;;;;;;;20.68;50.76;97820.00;5130770;27;20205;-70
2023/03/27 10:12:55;;;;;;;26.43;13.57;;;;;;;20.51;51.17;97807.09;5130522;27;20246;-70
2023/03/27 10:15:32;;;;;;;108.90;18.73;;;;;;;20.35;51.61;97813.13;5131718;27;20634;-69
2023/03/27 10:18:01;;;;;;;35.07;13.53;;;;;;;20.34;52.25;97806.13;5132880;27;20268;-69
2023/03/27 10:20:27;;;;;;;15.53;13.17;;;;;;;20.22;52.11;97803.91;5129874;27;20250;-69
2023/03/27 10:22:56;;;;;;;14.87;13.43;;;;;;;20.23;51.72;97794.75;5131638;27;20278;-70
2023/03/27 10:25:31;;;;;;;23.00;14.10;;;;;;;20.11;52.22;97802.53;5123015;27;20198;-70
2023/03/27 10:28:08;;;;;;;32.60;13.27;;;;;;;20.07;52.02;97795.28;5110750;28;20194;-67
2023/03/27 10:30:39;;;;;;;49.13;14.73;;;;;;;19.98;52.28;97791.69;5109605;28;20473;-66
2023/03/27 10:33:06;;;;;;;21.43;12.07;;;;;;;19.98;52.68;97792.47;5109715;28;20598;-67
2023/03/27 10:35:36;;;;;;;17.47;12.07;;;;;;;19.81;52.02;97780.69;5109698;28;20663;-68
2023/03/27 10:38:06;;;;;;;14.30;11.83;;;;;;;19.76;52.24;97767.28;5111018;28;20251;-65
2023/03/27 10:40:37;;;;;;;27.30;12.03;;;;;;;19.80;52.41;97754.81;5110779;28;20202;-72
2023/03/27 10:43:13;;;;;;;13.13;11.83;;;;;;;19.70;52.74;97763.09;5110837;28;20695;-71
2023/03/27 10:45:47;;;;;;;15.90;10.73;;;;;;;19.72;52.40;97753.63;5111499;28;20185;-68
2023/03/27 10:48:30;;;;;;;17.67;10.63;;;;;;;19.92;52.06;97765.91;5110054;28;20191;-68
2023/03/27 10:51:04;;;;;;;12.17;10.23;;;;;;;20.12;51.38;97762.88;5109716;28;20698;-70
2023/03/27 10:53:37;;;;;;;27.37;11.37;;;;;;;20.35;51.69;97764.56;5111522;28;20194;-69
2023/03/27 10:56:14;;;;;;;14.73;10.40;;;;;;;20.44;50.67;97757.38;5110766;28;20182;-68
2023/03/27 10:58:47;;;;;;;13.97;9.83;;;;;;;20.66;49.41;97751.25;5111155;28;20198;-68
2023/03/27 11:01:20;;;;;;;10.57;9.67;;;;;;;20.51;49.15;97741.59;5110216;28;20568;-69
2023/03/27 11:03:52;;;;;;;39.77;11.40;;;;;;;20.52;49.15;97732.38;5111808;28;20211;-67
2023/03/27 11:06:23;;;;;;;11.00;9.63;;;;;;;20.60;48.92;97702.00;5112100;28;20183;-68
2023/03/27 11:09:04;;;;;;;11.70;9.80;;;;;;;20.76;48.40;97695.16;5109580;28;20284;-69
2023/03/27 11:11:36;;;;;;;24.13;10.23;;;;;;;21.08;49.28;97697.69;5111182;28;20221;-68
2023/03/27 11:14:10;;;;;;;22.57;9.67;;;;;;;21.49;47.94;97682.06;5110542;28;20190;-68
2023/03/27 11:16:41;;;;;;;13.57;8.60;;;;;;;22.11;47.29;97672.78;5110397;28;20580;-68
2023/03/27 11:19:29;;;;;;;12.37;8.50;;;;;;;22.51;44.30;97658.09;5109578;28;20301;-68
2023/03/27 11:22:02;;;;;;;9.63;8.70;;;;;;;22.55;44.70;97637.41;5110733;28;20671;-66
2023/03/27 11:24:38;;;;;;;12.30;8.43;;;;;;;22.66;43.64;97648.72;5092640;28;20264;-66
2023/03/27 11:27:14;;;;;;;120.50;14.03;;;;;;;22.91;44.10;97616.19;5099121;28;20312;-68
2023/03/27 11:29:48;;;;;;;16.80;8.13;;;;;;;23.12;43.51;97597.38;5110468;28;20206;-68
2023/03/27 11:32:22;;;;;;;12.93;7.67;;;;;;;23.17;42.24;97598.00;5109720;28;21399;-68
2023/03/27 11:34:56;;;;;;;10.40;7.60;;;;;;;23.13;42.21;97590.81;5115178;27;20648;-68
2023/03/27 11:37:33;;;;;;;24.50;8.87;;;;;;;23.25;41.96;97577.44;5113892;28;20187;-69
2023/03/27 11:40:06;;;;;;;16.90;7.50;;;;;;;23.54;40.83;97550.38;5112501;28;20232;-68